Time;durP1;ratioP1;P1;durP2;ratioP2;P2;SDS_P1;SDS_P2;PMS_P1;PMS_P2;Temp;Humidity;BMP_temperature;BMP_pressure;BME280_temperature;BME280_humidity;BME280_pressure;Samples;Min_cycle;Max_cycle;Signal;HPM_P1;HPM_P2
2022/11/30 00:01:21;;;;;;;4.63;4.27;;;;;;;4.90;89.53;95582.41;4364514;32;20297;-66
2022/11/30 00:03:52;;;;;;;6.07;4.87;;;;;;;4.63;90.47;95582.41;4363054;32;20379;-66
2022/11/30 00:06:21;;;;;;;9.23;7.00;;;;;;;4.73;90.68;95582.53;4363714;32;20280;-66
2022/11/30 00:08:50;;;;;;;4.50;4.10;;;;;;;4.48;91.02;95583.06;4383389;32;20346;-66
2022/11/30 00:11:20;;;;;;;6.07;4.60;;;;;;;4.60;91.42;95586.34;4367227;32;20308;-66
2022/11/30 00:13:46;;;;;;;5.87;5.20;;;;;;;4.82;89.99;95581.81;4348043;32;20348;-66
2022/11/30 00:16:15;;;;;;;5.40;5.10;;;;;;;4.95;89.32;95579.81;4348976;32;20351;-66
2022/11/30 00:18:41;;;;;;;4.40;4.10;;;;;;;4.84;89.45;95581.56;4373228;32;20299;-66
2022/11/30 00:21:14;;;;;;;3.87;3.57;;;;;;;5.06;88.98;95573.56;4375795;32;20280;-67
2022/11/30 00:23:42;;;;;;;4.47;4.27;;;;;;;4.73;89.65;95583.31;4384114;32;20225;-66
2022/11/30 00:26:11;;;;;;;4.40;4.17;;;;;;;4.70;90.26;95590.91;4373041;32;20272;-66
2022/11/30 00:28:38;;;;;;;3.80;3.60;;;;;;;4.89;89.58;95584.22;4341213;32;20348;-66
2022/11/30 00:31:11;;;;;;;3.77;3.57;;;;;;;4.75;90.15;95589.13;4373514;32;20319;-66
2022/11/30 00:33:37;;;;;;;4.60;4.30;;;;;;;4.59;90.19;95584.75;4364270;32;20327;-66
2022/11/30 00:36:11;;;;;;;7.00;5.83;;;;;;;4.64;89.60;95584.00;4368057;32;20283;-66
2022/11/30 00:38:38;;;;;;;5.07;4.70;;;;;;;4.71;90.09;95582.78;4366168;32;20303;-66
2022/11/30 00:41:05;;;;;;;4.13;4.03;;;;;;;4.71;90.15;95592.50;4364137;32;20292;-66
2022/11/30 00:43:32;;;;;;;4.53;4.10;;;;;;;4.69;89.96;95595.37;4358240;32;21679;-66
2022/11/30 00:45:57;;;;;;;3.73;3.47;;;;;;;4.50;90.10;95588.87;4378330;32;20294;-66
2022/11/30 00:48:24;;;;;;;5.80;5.40;;;;;;;4.53;89.76;95598.09;4355709;32;20293;-66
2022/11/30 00:50:51;;;;;;;6.00;4.70;;;;;;;4.58;89.92;95588.41;4354376;32;20196;-66
2022/11/30 00:53:19;;;;;;;5.90;5.27;;;;;;;4.74;89.24;95600.66;4365944;32;20338;-66
2022/11/30 00:55:46;;;;;;;4.97;4.60;;;;;;;4.59;89.45;95597.09;4372728;32;20303;-66
2022/11/30 00:58:12;;;;;;;4.73;4.33;;;;;;;4.56;89.18;95600.25;4370595;32;20276;-66
2022/11/30 01:00:39;;;;;;;5.27;4.87;;;;;;;4.66;89.07;95601.09;4362632;32;20284;-66
2022/11/30 01:03:05;;;;;;;5.93;5.37;;;;;;;4.77;88.75;95602.81;4330777;32;20324;-66
2022/11/30 01:05:35;;;;;;;8.17;6.33;;;;;;;4.91;87.96;95603.19;4349575;32;20340;-66
2022/11/30 01:08:04;;;;;;;6.47;5.97;;;;;;;4.84;88.47;95599.94;4345893;32;20361;-67
2022/11/30 01:10:30;;;;;;;10.13;5.53;;;;;;;4.96;88.32;95603.22;4336463;32;20284;-66
2022/11/30 01:12:55;;;;;;;4.67;4.27;;;;;;;4.96;88.71;95608.47;4323855;32;20293;-66
2022/11/30 01:15:21;;;;;;;5.60;5.10;;;;;;;5.09;88.10;95608.06;4341928;32;20319;-66
2022/11/30 01:17:47;;;;;;;5.50;5.10;;;;;;;5.35;87.12;95588.00;4357421;32;20290;-66
2022/11/30 01:20:13;;;;;;;6.17;4.67;;;;;;;4.96;87.40;95594.53;4372180;32;20203;-67
2022/11/30 01:22:39;;;;;;;4.87;4.47;;;;;;;4.84;88.20;95606.00;4369280;32;20288;-66
2022/11/30 01:25:06;;;;;;;4.70;4.33;;;;;;;4.81;87.76;95610.97;4354599;32;20192;-67
2022/11/30 01:27:32;;;;;;;5.80;5.43;;;;;;;4.94;87.56;95610.56;4368250;32;20272;-67
2022/11/30 01:29:58;;;;;;;7.37;4.87;;;;;;;4.96;86.99;95607.69;4375878;32;20277;-67
2022/11/30 01:32:24;;;;;;;3.43;3.23;;;;;;;5.16;86.48;95607.84;4340683;32;20285;-66
2022/11/30 01:34:53;;;;;;;4.00;3.70;;;;;;;5.08;86.62;95608.31;4352007;32;20275;-67
2022/11/30 01:37:19;;;;;;;4.00;3.70;;;;;;;5.04;86.69;95615.09;4350995;32;20288;-67
2022/11/30 01:39:46;;;;;;;4.50;4.13;;;;;;;5.03;86.54;95609.03;4337479;32;20292;-67
2022/11/30 01:42:20;;;;;;;5.67;5.17;;;;;;;4.93;86.66;95614.22;4354333;32;20277;-67
2022/11/30 01:44:51;;;;;;;4.07;3.87;;;;;;;4.95;87.16;95612.16;4367863;32;20293;-67
2022/11/30 01:47:23;;;;;;;5.97;5.53;;;;;;;4.84;87.45;95607.84;4371296;32;20399;-66
2022/11/30 01:49:57;;;;;;;5.13;4.73;;;;;;;4.83;87.54;95606.25;4356487;32;20307;-66
2022/11/30 01:52:36;;;;;;;5.80;5.30;;;;;;;4.70;87.83;95609.28;4373144;32;20285;-66
2022/11/30 01:55:32;;;;;;;5.23;4.83;;;;;;;4.76;87.97;95611.72;4375908;32;20392;-66
2022/11/30 01:58:12;;;;;;;4.97;4.40;;;;;;;5.05;86.81;95599.06;4353248;32;20308;-66
2022/11/30 02:00:45;;;;;;;5.30;5.00;;;;;;;4.99;86.60;95602.69;4347164;32;20273;-66
2022/11/30 02:03:16;;;;;;;6.97;5.87;;;;;;;4.80;86.82;95606.75;4362400;32;20332;-66
2022/11/30 02:05:41;;;;;;;6.03;5.57;;;;;;;4.68;87.92;95604.28;4378837;32;20280;-66
2022/11/30 02:08:09;;;;;;;5.93;5.47;;;;;;;4.65;88.01;95604.78;4349482;32;20296;-66
2022/11/30 02:10:38;;;;;;;5.47;5.07;;;;;;;4.71;88.83;95606.41;4346177;32;20189;-66
2022/11/30 02:13:41;;;;;;;9.10;6.97;;;;;;;4.79;87.97;95600.69;4372484;32;20367;-66
2022/11/30 02:16:23;;;;;;;5.10;4.80;;;;;;;4.60;88.98;95599.47;4321671;32;20325;-66
2022/11/30 02:19:12;;;;;;;6.53;6.13;;;;;;;4.96;87.60;95589.28;4367014;32;20340;-66
2022/11/30 02:22:13;;;;;;;4.10;3.80;;;;;;;4.68;88.17;95596.41;4353105;32;20284;-66
2022/11/30 02:25:26;;;;;;;6.87;6.43;;;;;;;4.81;88.46;95593.34;4338452;32;20340;-67
2022/11/30 02:28:17;;;;;;;9.67;7.70;;;;;;;4.69;88.35;95595.37;4263426;32;20363;-67
2022/11/30 02:30:50;;;;;;;6.27;5.63;;;;;;;4.87;88.00;95603.91;4361063;32;20284;-66
2022/11/30 02:33:22;;;;;;;6.40;5.90;;;;;;;4.54;89.38;95604.94;4368243;32;20309;-66
2022/11/30 02:35:52;;;;;;;5.63;4.93;;;;;;;4.63;89.09;95604.22;4352034;32;20327;-66
2022/11/30 02:38:22;;;;;;;5.67;5.20;;;;;;;4.78;88.86;95607.00;4351966;32;20276;-66
2022/11/30 02:40:47;;;;;;;4.47;4.27;;;;;;;4.86;88.50;95620.72;4351815;32;20281;-66
2022/11/30 02:43:16;;;;;;;5.63;5.23;;;;;;;4.83;87.79;95612.28;4379015;32;20294;-66
2022/11/30 02:46:19;;;;;;;10.13;6.60;;;;;;;5.03;87.38;95616.94;4361171;32;20234;-66
2022/11/30 02:49:27;;;;;;;7.03;6.47;;;;;;;5.06;87.31;95611.19;4355169;32;20310;-67
2022/11/30 02:51:55;;;;;;;7.00;6.40;;;;;;;4.97;87.68;95625.84;4364754;32;20327;-67
2022/11/30 02:54:22;;;;;;;4.33;4.13;;;;;;;5.03;87.48;95626.66;4352608;32;20343;-65
2022/11/30 02:56:48;;;;;;;4.90;4.60;;;;;;;4.97;87.92;95632.94;4347581;32;20299;-67
2022/11/30 02:59:13;;;;;;;6.90;6.30;;;;;;;4.89;87.86;95623.66;4359345;32;20327;-66
2022/11/30 03:01:38;;;;;;;4.53;4.33;;;;;;;4.83;88.10;95622.00;4378143;32;20199;-66
2022/11/30 03:04:04;;;;;;;5.10;4.63;;;;;;;4.73;87.75;95621.94;4379381;32;20189;-66
2022/11/30 03:06:30;;;;;;;4.03;3.83;;;;;;;4.61;88.56;95621.28;4373183;32;20425;-66
2022/11/30 03:08:56;;;;;;;5.43;5.03;;;;;;;4.56;88.43;95619.41;4357296;32;20185;-66
2022/11/30 03:11:22;;;;;;;7.83;5.60;;;;;;;4.54;88.77;95618.87;4370116;32;20195;-66
2022/11/30 03:13:47;;;;;;;5.50;5.00;;;;;;;4.52;87.79;95626.19;4359835;32;20285;-66
2022/11/30 03:16:13;;;;;;;4.20;3.97;;;;;;;4.39;88.42;95627.38;4336127;32;20195;-66
2022/11/30 03:18:39;;;;;;;5.70;4.60;;;;;;;4.27;88.78;95625.91;4354726;32;20193;-66
2022/11/30 03:21:10;;;;;;;4.47;4.17;;;;;;;4.46;88.17;95632.44;4336898;32;20193;-66
2022/11/30 03:23:37;;;;;;;4.97;4.70;;;;;;;4.58;87.80;95634.91;4321132;32;20248;-66
2022/11/30 03:26:04;;;;;;;6.80;4.97;;;;;;;4.64;87.05;95634.72;4353305;32;20334;-66
2022/11/30 03:28:32;;;;;;;6.23;5.83;;;;;;;4.51;86.50;95635.13;4346049;32;20297;-66
2022/11/30 03:30:58;;;;;;;4.67;4.27;;;;;;;4.39;87.26;95639.69;4372672;32;20273;-66
2022/11/30 03:33:24;;;;;;;5.70;5.40;;;;;;;4.41;87.36;95635.00;4344341;32;20287;-67
2022/11/30 03:36:01;;;;;;;4.70;4.40;;;;;;;4.36;87.84;95638.38;4341498;32;20172;-67
2022/11/30 03:38:29;;;;;;;5.77;5.37;;;;;;;4.34;88.09;95634.41;4343340;32;20340;-67
2022/11/30 03:41:02;;;;;;;4.93;4.63;;;;;;;4.49;87.83;95642.44;4347325;32;20303;-67
2022/11/30 03:43:29;;;;;;;4.63;4.23;;;;;;;4.39;87.41;95640.50;4321853;32;20300;-67
2022/11/30 03:45:55;;;;;;;5.20;4.70;;;;;;;4.50;86.84;95644.03;4363412;32;20347;-67
2022/11/30 03:48:26;;;;;;;6.07;5.63;;;;;;;4.58;86.96;95642.78;4367919;32;20321;-67
2022/11/30 03:50:51;;;;;;;5.37;4.97;;;;;;;4.65;87.01;95646.81;4360174;32;20360;-66
2022/11/30 03:53:19;;;;;;;8.27;7.27;;;;;;;4.67;86.53;95636.84;4345242;32;20277;-67
2022/11/30 03:55:44;;;;;;;4.77;4.57;;;;;;;4.52;87.41;95641.97;4320907;32;20197;-66
2022/11/30 03:58:10;;;;;;;3.70;3.50;;;;;;;4.55;87.62;95640.69;4362490;32;20276;-67
2022/11/30 04:00:36;;;;;;;5.30;5.00;;;;;;;4.61;87.11;95635.22;4336540;32;20199;-66
2022/11/30 04:03:29;;;;;;;5.07;4.50;;;;;;;4.69;86.99;95642.66;4361573;32;20268;-67
2022/11/30 04:05:56;;;;;;;6.00;5.60;;;;;;;4.68;87.00;95635.03;4358515;32;20230;-67
2022/11/30 04:08:21;;;;;;;7.57;5.87;;;;;;;4.80;86.64;95638.28;4369365;32;20361;-66
2022/11/30 04:10:51;;;;;;;5.83;5.30;;;;;;;4.84;86.42;95639.38;4383009;32;20333;-66
2022/11/30 04:13:18;;;;;;;5.20;4.30;;;;;;;4.37;88.23;95649.66;4366007;32;20197;-67
2022/11/30 04:15:46;;;;;;;6.30;5.80;;;;;;;4.26;89.12;95645.34;4366248;32;20311;-66
2022/11/30 04:18:14;;;;;;;6.77;6.23;;;;;;;4.49;89.02;95647.69;4372281;32;20284;-66
2022/11/30 04:20:39;;;;;;;9.83;7.83;;;;;;;4.38;89.22;95638.91;4354496;32;20293;-66
2022/11/30 04:23:07;;;;;;;7.23;6.63;;;;;;;4.45;88.81;95636.09;4374089;32;20368;-66
2022/11/30 04:25:33;;;;;;;3.70;3.43;;;;;;;4.30;89.67;95638.56;4369930;32;20189;-67
2022/11/30 04:27:59;;;;;;;7.47;6.73;;;;;;;4.38;89.35;95635.47;4372121;32;20380;-66
2022/11/30 04:30:26;;;;;;;5.33;4.03;;;;;;;4.38;88.86;95638.91;4370572;32;20208;-67
2022/11/30 04:32:53;;;;;;;5.87;5.47;;;;;;;4.38;88.90;95638.09;4341813;32;20336;-66
2022/11/30 04:35:20;;;;;;;5.73;5.27;;;;;;;4.34;89.30;95629.16;4334092;32;20284;-66
2022/11/30 04:37:46;;;;;;;5.30;4.87;;;;;;;4.27;89.27;95641.69;4358019;32;20296;-66
2022/11/30 04:40:12;;;;;;;4.83;4.53;;;;;;;4.39;89.66;95631.81;4357414;32;20299;-66
2022/11/30 04:42:38;;;;;;;6.77;6.33;;;;;;;4.39;89.15;95631.81;4377113;32;20284;-66
2022/11/30 04:45:05;;;;;;;5.77;5.37;;;;;;;4.27;89.65;95639.06;4384544;32;20184;-67
2022/11/30 04:47:31;;;;;;;4.87;4.43;;;;;;;4.33;89.64;95635.44;4367657;32;20359;-67
2022/11/30 04:49:56;;;;;;;5.97;5.10;;;;;;;4.37;89.99;95647.03;4374895;32;20319;-67
2022/11/30 04:52:24;;;;;;;6.23;5.63;;;;;;;4.38;89.40;95641.53;4385120;32;20242;-66
2022/11/30 04:54:55;;;;;;;3.83;3.63;;;;;;;4.70;88.57;95641.63;4358796;32;20308;-66
2022/11/30 04:57:22;;;;;;;3.97;3.77;;;;;;;4.65;88.04;95641.56;4341052;32;20324;-66
2022/11/30 04:59:52;;;;;;;5.53;5.13;;;;;;;4.73;87.99;95643.75;4374582;32;20376;-66
2022/11/30 05:02:19;;;;;;;8.07;5.23;;;;;;;4.72;88.31;95642.16;4365350;32;20268;-66
2022/11/30 05:04:45;;;;;;;4.53;4.17;;;;;;;4.72;88.37;95652.69;4349267;32;20383;-66
2022/11/30 05:07:10;;;;;;;9.83;5.40;;;;;;;4.65;88.17;95648.66;4361100;32;20280;-67
2022/11/30 05:09:35;;;;;;;6.90;6.30;;;;;;;4.38;89.46;95648.63;4374270;32;20203;-67
2022/11/30 05:12:02;;;;;;;5.47;5.07;;;;;;;4.41;89.47;95654.16;4362752;32;20334;-67
2022/11/30 05:14:29;;;;;;;15.80;6.03;;;;;;;4.51;89.55;95656.13;4350904;32;20235;-67
2022/11/30 05:16:55;;;;;;;4.83;4.47;;;;;;;4.68;88.60;95656.84;4368771;32;20284;-66
2022/11/30 05:19:22;;;;;;;4.80;4.40;;;;;;;4.68;88.54;95650.78;4372631;32;20351;-66
2022/11/30 05:21:49;;;;;;;5.30;4.90;;;;;;;4.78;88.01;95649.03;4371326;32;20299;-66
2022/11/30 05:24:17;;;;;;;5.60;3.80;;;;;;;4.59;88.19;95655.69;4356609;32;20284;-66
2022/11/30 05:26:43;;;;;;;6.07;5.53;;;;;;;4.55;88.63;95657.22;4367517;32;20306;-66
2022/11/30 05:29:10;;;;;;;6.97;4.20;;;;;;;4.52;88.58;95656.94;4358496;32;20304;-66
2022/11/30 05:31:40;;;;;;;6.80;6.20;;;;;;;4.38;89.31;95667.00;4366346;32;20319;-66
2022/11/30 05:34:06;;;;;;;4.70;4.43;;;;;;;4.27;89.75;95658.22;4334685;32;20321;-67
2022/11/30 05:36:31;;;;;;;6.53;4.27;;;;;;;4.33;89.14;95659.09;4352770;32;20372;-67
2022/11/30 05:38:57;;;;;;;4.30;3.13;;;;;;;4.22;89.83;95667.88;4342812;32;20293;-67
2022/11/30 05:41:24;;;;;;;4.47;3.03;;;;;;;4.30;89.50;95670.06;4355887;32;20208;-66
2022/11/30 05:43:50;;;;;;;4.73;4.33;;;;;;;4.34;89.13;95669.34;4344942;32;20204;-67
2022/11/30 05:46:16;;;;;;;5.73;5.23;;;;;;;4.39;89.15;95677.25;4344637;32;20285;-66
2022/11/30 05:48:41;;;;;;;3.67;3.43;;;;;;;4.41;88.74;95675.19;4351019;32;20304;-67
2022/11/30 05:51:14;;;;;;;6.57;6.17;;;;;;;4.51;88.13;95685.03;4370823;32;20184;-66
2022/11/30 05:53:40;;;;;;;4.17;3.87;;;;;;;4.45;88.05;95686.00;4346513;32;20185;-66
2022/11/30 05:56:09;;;;;;;8.50;4.70;;;;;;;4.42;88.48;95681.22;4381796;32;20304;-66
2022/11/30 05:58:36;;;;;;;4.20;3.80;;;;;;;4.55;87.44;95678.25;4363879;32;20289;-66
2022/11/30 06:01:01;;;;;;;5.90;4.20;;;;;;;4.50;87.92;95680.81;4369718;32;20380;-67
2022/11/30 06:03:28;;;;;;;5.57;5.07;;;;;;;4.45;88.05;95678.13;4373253;32;20288;-67
2022/11/30 06:05:56;;;;;;;5.33;4.33;;;;;;;4.88;86.83;95677.25;4344132;32;20177;-67
2022/11/30 06:08:23;;;;;;;4.37;4.07;;;;;;;4.89;86.60;95678.06;4376239;32;20333;-67
2022/11/30 06:10:50;;;;;;;5.03;4.37;;;;;;;5.03;85.71;95684.50;4372772;32;20292;-66
2022/11/30 06:13:16;;;;;;;5.27;4.87;;;;;;;5.00;85.83;95684.97;4379214;32;20325;-67
2022/11/30 06:15:42;;;;;;;5.20;4.80;;;;;;;5.18;85.40;95680.19;4371483;32;20292;-67
2022/11/30 06:18:12;;;;;;;2.73;2.57;;;;;;;5.04;85.17;95678.19;4357432;32;20337;-67
2022/11/30 06:20:38;;;;;;;4.93;4.57;;;;;;;5.04;84.99;95675.56;4370087;32;20188;-67
2022/11/30 06:23:08;;;;;;;4.27;3.87;;;;;;;5.17;84.61;95680.44;4379443;32;20360;-67
2022/11/30 06:25:35;;;;;;;3.43;3.23;;;;;;;5.27;84.26;95677.88;4357936;32;20271;-67
2022/11/30 06:28:02;;;;;;;5.13;4.73;;;;;;;5.34;83.72;95675.03;4364856;32;20337;-67
2022/11/30 06:30:27;;;;;;;3.90;3.60;;;;;;;5.27;83.96;95680.50;4373071;32;20284;-68
2022/11/30 06:32:53;;;;;;;3.83;3.53;;;;;;;5.16;83.86;95676.22;4372039;32;20395;-67
2022/11/30 06:35:18;;;;;;;4.33;3.20;;;;;;;5.39;83.47;95680.34;4381406;32;20254;-67
2022/11/30 06:37:44;;;;;;;3.97;3.57;;;;;;;5.41;82.87;95686.91;4369677;32;20230;-67
2022/11/30 06:40:12;;;;;;;3.97;3.70;;;;;;;5.34;83.10;95681.09;4366699;32;20343;-67
2022/11/30 06:42:39;;;;;;;4.13;3.83;;;;;;;5.26;83.33;95675.50;4349916;32;20214;-67
2022/11/30 06:45:06;;;;;;;3.40;3.20;;;;;;;5.40;82.91;95674.81;4377405;32;20277;-67
2022/11/30 06:47:32;;;;;;;8.77;3.60;;;;;;;5.11;83.56;95670.91;4366997;32;20359;-68
2022/11/30 06:49:57;;;;;;;4.43;4.17;;;;;;;5.40;82.86;95671.41;4344715;32;20294;-67
2022/11/30 06:52:24;;;;;;;2.80;2.70;;;;;;;5.42;82.83;95677.19;4379896;32;20200;-67
2022/11/30 06:54:51;;;;;;;6.77;4.80;;;;;;;5.35;82.73;95682.69;4357267;32;20181;-67
2022/11/30 06:57:16;;;;;;;4.50;4.10;;;;;;;5.31;82.76;95692.13;4382467;32;20314;-67
2022/11/30 06:59:43;;;;;;;5.10;4.70;;;;;;;5.36;82.93;95700.06;4372446;32;20326;-66
2022/11/30 07:02:13;;;;;;;4.00;3.60;;;;;;;5.47;82.55;95691.19;4389590;32;20196;-67
2022/11/30 07:04:40;;;;;;;3.80;3.60;;;;;;;5.42;82.32;95692.97;4375899;32;20295;-66
2022/11/30 07:07:08;;;;;;;5.33;4.83;;;;;;;5.16;82.59;95689.34;4382540;32;20295;-67
2022/11/30 07:09:34;;;;;;;5.20;4.70;;;;;;;5.00;83.58;95695.50;4369359;32;20281;-66
2022/11/30 07:12:02;;;;;;;3.57;3.37;;;;;;;5.30;83.25;95695.78;4380127;32;20283;-66
2022/11/30 07:14:29;;;;;;;3.83;2.47;;;;;;;5.15;83.41;95685.94;4352910;32;20334;-67
2022/11/30 07:16:55;;;;;;;4.40;4.10;;;;;;;5.44;82.48;95686.41;4379289;32;20351;-66
2022/11/30 07:19:20;;;;;;;3.97;3.67;;;;;;;5.40;82.29;95698.47;4375969;32;20280;-66
2022/11/30 07:21:47;;;;;;;4.13;3.47;;;;;;;5.39;82.38;95689.03;4368484;32;20192;-66
2022/11/30 07:26:59;;;;;;;4.37;4.10;;;;;;;5.39;82.71;95704.03;4346557;32;20340;-66
2022/11/30 07:29:26;;;;;;;3.00;2.90;;;;;;;5.12;82.91;95696.16;4373294;32;20273;-66
2022/11/30 07:31:53;;;;;;;14.10;5.90;;;;;;;5.12;83.26;95704.03;4375538;32;20327;-67
2022/11/30 07:34:23;;;;;;;4.37;3.97;;;;;;;4.88;84.50;95694.87;4341257;32;20281;-66
2022/11/30 07:36:51;;;;;;;6.23;3.73;;;;;;;5.01;84.46;95707.59;4357028;32;20285;-66
2022/11/30 07:39:16;;;;;;;5.23;4.83;;;;;;;4.92;85.16;95703.84;4381697;32;20335;-66
2022/11/30 07:41:42;;;;;;;3.70;3.50;;;;;;;5.30;83.71;95706.31;4386087;32;20347;-66
2022/11/30 07:44:08;;;;;;;5.20;4.87;;;;;;;5.30;83.44;95706.31;4370229;32;20227;-67
2022/11/30 07:46:35;;;;;;;5.13;4.73;;;;;;;5.23;84.01;95705.72;4360612;32;20199;-66
2022/11/30 07:49:02;;;;;;;6.07;5.57;;;;;;;5.30;83.36;95698.41;4325904;32;20292;-67
2022/11/30 07:51:30;;;;;;;4.27;3.83;;;;;;;5.44;82.67;95691.69;4332715;32;20310;-66
2022/11/30 07:54:01;;;;;;;3.70;3.50;;;;;;;5.31;83.02;95699.22;4351560;32;20320;-67
2022/11/30 07:56:28;;;;;;;6.37;4.20;;;;;;;5.13;83.95;95689.84;4357030;32;20309;-63
2022/11/30 07:58:56;;;;;;;2.60;2.50;;;;;;;5.16;84.23;95692.78;4377607;32;20280;-66
2022/11/30 08:01:24;;;;;;;3.90;3.67;;;;;;;5.12;84.87;95699.56;4332693;32;20321;-65
2022/11/30 08:03:50;;;;;;;4.67;4.27;;;;;;;5.12;84.22;95707.47;4379812;32;20323;-65
2022/11/30 08:06:25;;;;;;;4.23;3.80;;;;;;;5.20;84.03;95700.94;4361669;32;20304;-68
2022/11/30 08:08:56;;;;;;;4.13;3.83;;;;;;;5.34;83.53;95704.78;4369596;32;20288;-66
2022/11/30 08:11:24;;;;;;;4.40;4.10;;;;;;;5.09;83.90;95704.53;4358396;32;20401;-62
2022/11/30 08:13:49;;;;;;;4.27;4.03;;;;;;;5.01;85.24;95697.09;4361426;32;20279;-68
2022/11/30 08:16:21;;;;;;;5.67;5.17;;;;;;;5.10;85.46;95706.12;4367618;32;20319;-65
2022/11/30 08:18:46;;;;;;;4.77;3.67;;;;;;;5.01;85.08;95702.34;4378018;32;20188;-65
2022/11/30 08:21:14;;;;;;;5.90;5.37;;;;;;;5.15;84.72;95706.19;4349554;32;20330;-71
2022/11/30 08:23:45;;;;;;;4.23;3.80;;;;;;;5.14;84.64;95710.66;4371269;32;20249;-65
2022/11/30 08:26:14;;;;;;;5.97;5.23;;;;;;;5.31;84.15;95702.63;4378697;32;20290;-63
2022/11/30 08:28:43;;;;;;;3.03;2.83;;;;;;;5.34;83.85;95707.41;4338197;32;20280;-62
2022/11/30 08:31:23;;;;;;;4.53;4.23;;;;;;;5.14;84.50;95708.00;4307664;32;20282;-63
2022/11/30 08:33:49;;;;;;;4.13;3.80;;;;;;;5.11;84.76;95708.50;4376199;32;20301;-62
2022/11/30 08:36:18;;;;;;;4.20;3.93;;;;;;;5.46;83.83;95713.28;4366073;32;20293;-62
2022/11/30 08:38:47;;;;;;;4.27;3.97;;;;;;;5.38;84.33;95711.13;4369309;32;20188;-65
2022/11/30 08:41:23;;;;;;;6.60;6.03;;;;;;;5.43;84.45;95710.34;4358757;32;20284;-66
2022/11/30 08:44:00;;;;;;;3.90;3.60;;;;;;;5.48;84.08;95719.09;4374785;32;20284;-66
2022/11/30 08:46:26;;;;;;;4.20;3.90;;;;;;;5.48;84.29;95719.09;4356898;32;20268;-63
2022/11/30 08:48:52;;;;;;;4.57;4.20;;;;;;;5.46;84.67;95721.16;4386938;32;20354;-66
2022/11/30 08:51:19;;;;;;;5.80;5.27;;;;;;;5.36;84.54;95720.31;4362975;32;20192;-63
2022/11/30 08:53:45;;;;;;;5.17;4.57;;;;;;;5.21;85.35;95720.94;4367008;32;20330;-66
2022/11/30 08:56:20;;;;;;;5.43;4.97;;;;;;;5.28;85.09;95721.53;4372427;32;20336;-65
2022/11/30 08:58:46;;;;;;;4.47;4.20;;;;;;;5.37;84.69;95722.69;4376291;32;20307;-62
2022/11/30 09:01:16;;;;;;;8.77;4.93;;;;;;;5.33;84.83;95731.31;4365011;32;20327;-63
2022/11/30 09:03:43;;;;;;;3.67;3.47;;;;;;;5.21;85.78;95734.09;4369142;32;20300;-65
2022/11/30 09:06:20;;;;;;;4.03;3.70;;;;;;;5.03;85.93;95734.44;4368243;32;20379;-65
2022/11/30 09:08:47;;;;;;;4.87;4.30;;;;;;;5.19;85.74;95736.19;4344866;32;20289;-64
2022/11/30 09:11:23;;;;;;;4.53;4.33;;;;;;;5.08;85.17;95734.50;4350507;32;20313;-64
2022/11/30 09:13:52;;;;;;;4.63;4.37;;;;;;;5.14;85.26;95733.50;4354853;32;20296;-65
2022/11/30 09:16:19;;;;;;;3.67;3.50;;;;;;;5.00;86.01;95738.34;4341296;32;20284;-65
2022/11/30 09:18:48;;;;;;;5.53;4.07;;;;;;;4.86;85.81;95731.91;4344479;32;20358;-63
2022/11/30 09:21:20;;;;;;;4.43;4.13;;;;;;;4.92;85.77;95733.56;4366863;32;20284;-64
2022/11/30 09:23:47;;;;;;;6.60;5.90;;;;;;;4.88;85.98;95744.81;4366702;32;20289;-63
2022/11/30 09:26:16;;;;;;;5.40;5.00;;;;;;;4.80;86.73;95727.63;4373408;32;20368;-63
2022/11/30 09:28:45;;;;;;;4.03;3.63;;;;;;;5.03;86.47;95735.22;4357528;32;20367;-64
2022/11/30 09:31:18;;;;;;;24.23;5.33;;;;;;;4.77;86.35;95731.56;4368056;32;20279;-64
2022/11/30 09:33:46;;;;;;;6.87;6.37;;;;;;;4.72;86.66;95726.25;4372584;32;20309;-65
2022/11/30 09:36:14;;;;;;;3.77;3.60;;;;;;;4.81;86.65;95724.75;4375755;32;20295;-64
2022/11/30 09:38:44;;;;;;;5.20;4.80;;;;;;;4.84;86.62;95721.62;4364780;32;20292;-64
2022/11/30 09:41:52;;;;;;;4.40;4.03;;;;;;;4.87;87.11;95724.81;4357647;32;20347;-64
2022/11/30 09:44:36;;;;;;;4.37;4.00;;;;;;;4.87;86.66;95722.97;4310190;32;20305;-64
2022/11/30 09:47:48;;;;;;;5.03;4.63;;;;;;;4.86;86.45;95728.47;4296892;33;20397;-65
2022/11/30 09:50:19;;;;;;;4.50;4.23;;;;;;;4.98;86.15;95721.28;4300332;32;20281;-66
2022/11/30 09:52:51;;;;;;;4.73;4.07;;;;;;;5.10;85.79;95722.69;4354687;32;20277;-64
2022/11/30 09:55:26;;;;;;;4.60;4.20;;;;;;;5.10;85.70;95720.06;4352269;32;20368;-73
2022/11/30 09:57:55;;;;;;;4.63;4.27;;;;;;;5.11;85.40;95720.84;4376148;32;20338;-67
2022/11/30 10:00:23;;;;;;;7.37;5.00;;;;;;;5.32;84.99;95722.63;4378275;32;20391;-68
2022/11/30 10:02:51;;;;;;;2.80;2.70;;;;;;;5.31;83.55;95718.41;4359640;32;20277;-72
2022/11/30 10:05:41;;;;;;;3.83;3.53;;;;;;;5.35;83.45;95724.75;4357150;32;20276;-74
2022/11/30 10:08:44;;;;;;;4.87;4.07;;;;;;;5.68;82.89;95722.91;4367016;32;20295;-67
2022/11/30 10:11:28;;;;;;;4.57;3.77;;;;;;;5.74;81.86;95727.19;4342231;32;20296;-66
2022/11/30 10:14:18;;;;;;;3.43;2.83;;;;;;;6.05;81.27;95718.44;4359392;32;20363;-66
2022/11/30 10:17:20;;;;;;;3.23;3.13;;;;;;;5.94;80.45;95716.03;4293033;32;20363;-66
2022/11/30 10:20:25;;;;;;;3.17;2.77;;;;;;;5.88;79.44;95728.31;4335375;32;20289;-69
2022/11/30 10:23:35;;;;;;;3.33;3.13;;;;;;;5.55;80.38;95725.97;4357086;32;20289;-70
2022/11/30 10:26:15;;;;;;;3.90;2.87;;;;;;;5.39;81.68;95727.69;4376286;32;20318;-69
2022/11/30 10:29:02;;;;;;;4.67;3.93;;;;;;;5.86;80.71;95728.56;4357284;32;20306;-66
2022/11/30 10:31:33;;;;;;;5.00;4.50;;;;;;;5.89;79.64;95732.56;4374811;32;20302;-65
2022/11/30 10:34:12;;;;;;;2.93;2.73;;;;;;;5.83;79.85;95723.00;4364619;32;20295;-65
2022/11/30 10:36:45;;;;;;;4.57;4.17;;;;;;;5.76;80.59;95727.72;4366912;32;20297;-66
2022/11/30 10:39:28;;;;;;;2.63;2.43;;;;;;;5.80;81.04;95719.06;4350699;32;20302;-64
2022/11/30 10:42:20;;;;;;;3.63;3.43;;;;;;;6.04;79.74;95721.34;4370244;32;20291;-62
2022/11/30 10:44:55;;;;;;;3.33;3.07;;;;;;;6.12;79.44;95719.03;4369170;32;20285;-63
2022/11/30 10:47:27;;;;;;;15.80;5.03;;;;;;;5.99;78.66;95718.69;4370822;32;20303;-61
2022/11/30 10:49:53;;;;;;;4.07;3.77;;;;;;;5.99;79.05;95711.59;4362683;32;20311;-61
2022/11/30 10:52:45;;;;;;;3.27;3.07;;;;;;;5.83;78.46;95720.38;4371992;32;20284;-61
2022/11/30 10:55:23;;;;;;;3.73;3.53;;;;;;;5.94;79.00;95716.81;4370847;32;20241;-61
2022/11/30 10:58:02;;;;;;;4.63;3.10;;;;;;;6.01;79.13;95706.06;4370088;32;20296;-63
2022/11/30 11:00:30;;;;;;;2.47;2.37;;;;;;;6.09;78.44;95709.00;4372394;32;20292;-66
2022/11/30 11:02:56;;;;;;;2.57;2.37;;;;;;;5.85;78.85;95702.50;4372331;32;20276;-67
2022/11/30 11:05:30;;;;;;;2.97;2.77;;;;;;;5.89;78.72;95700.97;4367380;32;20332;-64
2022/11/30 11:08:26;;;;;;;3.23;2.87;;;;;;;6.12;77.86;95691.91;4335509;32;20358;-62
2022/11/30 11:10:53;;;;;;;3.23;2.13;;;;;;;6.25;76.55;95695.91;4370822;32;20284;-64
2022/11/30 11:13:38;;;;;;;2.27;2.10;;;;;;;6.35;76.35;95686.22;4380744;32;20339;-64
2022/11/30 11:16:11;;;;;;;2.23;2.13;;;;;;;6.00;76.35;95686.84;4375278;32;20280;-63
2022/11/30 11:18:59;;;;;;;3.57;3.37;;;;;;;6.18;77.00;95686.41;4366456;32;20268;-63
2022/11/30 11:21:24;;;;;;;2.17;2.07;;;;;;;6.14;77.03;95693.22;4349501;32;20315;-63
2022/11/30 11:23:53;;;;;;;3.23;3.03;;;;;;;5.98;77.74;95696.84;4354248;32;20284;-63
2022/11/30 11:26:36;;;;;;;2.93;2.57;;;;;;;6.07;76.64;95692.66;4326690;32;20195;-64
2022/11/30 11:29:03;;;;;;;2.47;2.37;;;;;;;6.32;76.49;95694.63;4368980;32;20288;-63
2022/11/30 11:31:45;;;;;;;1.77;1.67;;;;;;;6.24;76.56;95694.31;4338945;32;20319;-63
2022/11/30 11:34:32;;;;;;;3.27;2.33;;;;;;;6.02;76.84;95691.84;4339460;32;20326;-63
2022/11/30 11:37:28;;;;;;;3.53;3.30;;;;;;;6.13;78.06;95691.66;4344251;32;20289;-63
2022/11/30 11:40:16;;;;;;;3.77;3.57;;;;;;;6.17;77.75;95690.09;4356984;32;20311;-64
2022/11/30 11:42:51;;;;;;;3.87;3.47;;;;;;;5.83;79.39;95691.44;4366343;32;20288;-64
2022/11/30 11:45:25;;;;;;;3.70;3.50;;;;;;;6.04;79.71;95687.91;4353407;32;20318;-63
2022/11/30 11:48:29;;;;;;;4.37;4.07;;;;;;;6.18;79.33;95696.16;4366892;32;20341;-63
2022/11/30 11:51:17;;;;;;;3.93;3.63;;;;;;;6.13;78.85;95686.37;4306279;32;20279;-64
2022/11/30 11:53:55;;;;;;;3.13;2.83;;;;;;;6.22;78.51;95693.81;4295646;33;20341;-65
2022/11/30 11:56:36;;;;;;;4.87;4.40;;;;;;;6.03;78.29;95683.66;4316406;32;20388;-64
2022/11/30 11:59:21;;;;;;;4.30;4.00;;;;;;;6.05;78.40;95686.84;4296512;33;20333;-64
2022/11/30 12:02:31;;;;;;;3.87;3.63;;;;;;;6.18;78.71;95686.41;4349685;32;20299;-64
2022/11/30 12:05:19;;;;;;;4.90;4.53;;;;;;;6.20;78.14;95684.31;4372972;32;20322;-63